createdAt,value
2023-04-02T00:02:17.706Z,6.3
2023-04-02T00:05:05.653Z,6.3
2023-04-02T00:07:53.332Z,6.2
2023-04-02T00:10:41.115Z,6.2
2023-04-02T00:13:28.648Z,6.2
2023-04-02T00:16:16.447Z,6.1
2023-04-02T00:19:04.249Z,6.1
2023-04-02T00:21:52.148Z,6
2023-04-02T00:24:40.131Z,6
2023-04-02T00:27:27.807Z,5.9
2023-04-02T00:30:15.471Z,5.9
2023-04-02T00:33:03.315Z,5.9
2023-04-02T00:35:51.015Z,5.8
2023-04-02T00:38:38.898Z,5.8
2023-04-02T00:41:26.685Z,5.8
2023-04-02T00:44:14.670Z,5.8
2023-04-02T00:47:02.450Z,5.7
2023-04-02T00:49:50.288Z,5.7
2023-04-02T00:52:38.100Z,5.7
2023-04-02T00:55:25.965Z,5.7
2023-04-02T00:58:13.692Z,5.7
2023-04-02T01:01:01.653Z,5.7
2023-04-02T01:03:49.721Z,5.7
2023-04-02T01:06:37.673Z,5.7
2023-04-02T01:09:25.557Z,5.6
2023-04-02T01:12:13.434Z,5.6
2023-04-02T01:15:01.161Z,5.6
2023-04-02T01:17:49.218Z,5.6
2023-04-02T01:20:37.127Z,5.7
2023-04-02T01:23:25.116Z,5.7
2023-04-02T01:26:12.972Z,5.7
2023-04-02T01:29:00.998Z,5.7
2023-04-02T01:31:48.901Z,5.7
2023-04-02T01:34:36.963Z,5.7
2023-04-02T01:37:24.745Z,5.7
2023-04-02T01:40:12.586Z,5.7
2023-04-02T01:43:00.392Z,5.7
2023-04-02T01:45:48.299Z,5.7
2023-04-02T01:48:36.087Z,5.6
2023-04-02T01:51:24.002Z,5.6
2023-04-02T01:54:11.802Z,5.5
2023-04-02T01:56:59.566Z,5.5
2023-04-02T01:59:47.548Z,5.5
2023-04-02T02:02:35.658Z,5.4
2023-04-02T02:05:23.942Z,5.3
2023-04-02T02:08:11.843Z,5.3
2023-04-02T02:10:59.636Z,5.3
2023-04-02T02:13:47.614Z,5.3
2023-04-02T02:16:35.479Z,5.3
2023-04-02T02:19:23.498Z,5.3
2023-04-02T02:22:11.135Z,5.3
2023-04-02T02:24:58.912Z,5.3
2023-04-02T02:27:46.686Z,5.3
2023-04-02T02:30:34.639Z,5.3
2023-04-02T02:33:22.551Z,5.3
2023-04-02T02:36:10.551Z,5.3
2023-04-02T02:38:58.280Z,5.2
2023-04-02T02:41:46.123Z,5.2
2023-04-02T02:44:33.833Z,5.2
2023-04-02T02:47:21.736Z,5.1
2023-04-02T02:50:09.739Z,5.1
2023-04-02T02:52:57.654Z,5.1
2023-04-02T02:55:45.439Z,5
2023-04-02T02:58:33.167Z,5
2023-04-02T03:01:20.924Z,5
2023-04-02T03:04:09.387Z,5
2023-04-02T03:06:57.415Z,5
2023-04-02T03:09:45.369Z,5
2023-04-02T03:12:33.210Z,5
2023-04-02T03:15:21.153Z,5
2023-04-02T03:18:09.032Z,5
2023-04-02T03:20:57.017Z,5
2023-04-02T03:23:46.576Z,4.9
2023-04-02T03:26:34.535Z,4.9
2023-04-02T03:29:22.312Z,4.9
2023-04-02T03:32:10.471Z,4.9
2023-04-02T03:34:58.290Z,4.9
2023-04-02T03:37:46.278Z,4.9
2023-04-02T03:40:34.136Z,4.9
2023-04-02T03:43:22.099Z,4.9
2023-04-02T03:46:09.891Z,4.9
2023-04-02T03:48:57.795Z,4.9
2023-04-02T03:51:45.656Z,4.9
2023-04-02T03:54:34.214Z,4.9
2023-04-02T03:57:22.105Z,4.9
2023-04-02T04:00:10.023Z,4.9
2023-04-02T04:02:58.010Z,4.8
2023-04-02T04:05:45.895Z,4.8
2023-04-02T04:08:33.885Z,4.8
2023-04-02T04:11:21.827Z,4.7
2023-04-02T04:14:09.782Z,4.7
2023-04-02T04:16:57.871Z,4.7
2023-04-02T04:19:45.854Z,4.7
2023-04-02T04:22:33.614Z,4.7
2023-04-02T04:25:21.518Z,4.6
2023-04-02T04:28:09.578Z,4.5
2023-04-02T04:30:57.329Z,4.5
2023-04-02T04:33:45.363Z,4.5
2023-04-02T04:36:33.259Z,4.5
2023-04-02T04:39:21.085Z,4.5
2023-04-02T04:42:08.837Z,4.5
2023-04-02T04:44:56.705Z,4.4
2023-04-02T04:47:44.589Z,4.4
2023-04-02T04:50:32.680Z,4.3
2023-04-02T04:53:20.512Z,4.3
2023-04-02T04:56:18.367Z,4.3
2023-04-02T04:59:07.677Z,4.3
2023-04-02T05:01:55.719Z,4.3
2023-04-02T05:04:43.838Z,4.2
2023-04-02T05:07:31.735Z,4.2
2023-04-02T05:10:19.648Z,4.2
2023-04-02T05:13:07.354Z,4.1
2023-04-02T05:15:55.333Z,4.1
2023-04-02T05:18:43.354Z,4.1
2023-04-02T05:21:31.319Z,4.1
2023-04-02T05:24:19.133Z,4
2023-04-02T05:27:07.151Z,4
2023-04-02T05:29:54.947Z,4.1
2023-04-02T05:32:42.848Z,4
2023-04-02T05:35:30.835Z,4
2023-04-02T05:38:18.842Z,4
2023-04-02T05:41:06.783Z,4
2023-04-02T05:43:54.685Z,4
2023-04-02T05:46:42.661Z,4
2023-04-02T05:49:30.762Z,3.9
2023-04-02T05:52:18.545Z,3.9
2023-04-02T05:55:06.562Z,4
2023-04-02T05:58:29.930Z,3.9
2023-04-02T06:01:24.419Z,3.9
2023-04-02T06:04:12.397Z,3.9
2023-04-02T06:07:00.465Z,3.9
2023-04-02T06:09:48.250Z,3.9
2023-04-02T06:12:36.208Z,3.9
2023-04-02T06:15:24.069Z,3.9
2023-04-02T06:18:12.060Z,3.9
2023-04-02T06:20:59.942Z,3.9
2023-04-02T06:23:47.818Z,3.9
2023-04-02T06:26:35.597Z,3.9
2023-04-02T06:29:23.674Z,3.9
2023-04-02T06:32:11.457Z,3.9
2023-04-02T06:34:59.474Z,3.9
2023-04-02T06:37:47.309Z,3.9
2023-04-02T06:40:35.195Z,3.9
2023-04-02T06:43:23.130Z,3.9
2023-04-02T06:46:11.252Z,3.9
2023-04-02T06:48:59.311Z,3.9
2023-04-02T06:51:47.197Z,3.9
2023-04-02T06:54:34.997Z,3.9
2023-04-02T06:57:23.107Z,3.9
2023-04-02T07:00:11.180Z,3.9
2023-04-02T07:02:59.240Z,3.9
2023-04-02T07:05:47.288Z,3.9
2023-04-02T07:08:35.220Z,3.9
2023-04-02T07:11:23.054Z,3.9
2023-04-02T07:14:11.142Z,3.9
2023-04-02T07:16:59.181Z,3.9
2023-04-02T07:19:47.200Z,3.9
2023-04-02T07:22:35.213Z,3.9
2023-04-02T07:25:23.254Z,3.9
2023-04-02T07:28:11.287Z,3.9
2023-04-02T07:30:59.184Z,3.9
2023-04-02T07:33:47.135Z,3.9
2023-04-02T07:36:35.304Z,3.8
2023-04-02T07:39:23.337Z,3.9
2023-04-02T07:42:11.307Z,3.9
2023-04-02T07:44:59.098Z,3.9
2023-04-02T07:47:47.122Z,3.9
2023-04-02T07:50:35.191Z,4
2023-04-02T07:53:23.211Z,4.1
2023-04-02T07:56:11.106Z,4.1
2023-04-02T07:58:59.212Z,4.2
2023-04-02T08:01:47.130Z,4.3
2023-04-02T08:04:35.210Z,4.3
2023-04-02T08:07:23.063Z,4.3
2023-04-02T08:10:11.184Z,4.4
2023-04-02T08:12:59.060Z,4.4
2023-04-02T08:15:47.081Z,4.4
2023-04-02T08:18:35.074Z,4.4
2023-04-02T08:21:22.827Z,4.4
2023-04-02T08:24:11.039Z,4.4
2023-04-02T08:26:59.002Z,4.4
2023-04-02T08:29:46.844Z,4.4
2023-04-02T08:32:34.763Z,4.4
2023-04-02T08:35:22.634Z,4.5
2023-04-02T08:38:10.689Z,4.5
2023-04-02T08:40:58.560Z,4.6
2023-04-02T08:43:46.650Z,4.7
2023-04-02T08:46:34.739Z,4.7
2023-04-02T08:49:22.888Z,4.7
2023-04-02T08:52:10.797Z,4.8
2023-04-02T08:54:58.753Z,4.9
2023-04-02T08:57:46.688Z,4.9
2023-04-02T09:00:35.617Z,4.9
2023-04-02T09:03:25.946Z,4.9
2023-04-02T09:06:16.027Z,5
2023-04-02T09:09:04.626Z,5
2023-04-02T09:11:52.694Z,5.1
2023-04-02T09:14:40.657Z,5.2
2023-04-02T09:17:31.162Z,5.3
2023-04-02T09:20:30.508Z,5.3
2023-04-02T09:23:18.557Z,5.3
2023-04-02T09:26:06.722Z,5.3
2023-04-02T09:28:54.676Z,5.4
2023-04-02T09:31:42.740Z,5.4
2023-04-02T09:34:30.940Z,5.5
2023-04-02T09:37:18.903Z,5.5
2023-04-02T09:40:06.933Z,5.5
2023-04-02T09:42:54.818Z,5.4
2023-04-02T09:45:42.763Z,5.4
2023-04-02T09:48:30.851Z,5.4
2023-04-02T09:51:18.913Z,5.5
2023-04-02T09:54:09.307Z,5.5
2023-04-02T09:56:57.409Z,5.5
2023-04-02T09:59:45.206Z,5.6
2023-04-02T10:02:33.197Z,5.7
2023-04-02T10:05:30.000Z,5.7
2023-04-02T10:08:29.424Z,5.8
2023-04-02T10:11:17.425Z,5.9
2023-04-02T10:14:05.212Z,6
2023-04-02T10:16:55.212Z,6.1
2023-04-02T10:19:43.279Z,6.1
2023-04-02T10:22:31.167Z,6
2023-04-02T10:25:19.133Z,6
2023-04-02T10:28:06.986Z,6.1
2023-04-02T10:30:54.932Z,6.2
2023-04-02T10:33:42.962Z,6.1
2023-04-02T10:36:31.003Z,6.1
2023-04-02T10:39:18.899Z,6.1
2023-04-02T10:42:06.909Z,6.2
2023-04-02T10:44:54.813Z,6.2
2023-04-02T10:47:42.851Z,6.3
2023-04-02T10:50:30.788Z,6.4
2023-04-02T10:53:18.778Z,6.4
2023-04-02T10:56:06.666Z,6.4
2023-04-02T10:58:56.894Z,6.4
2023-04-02T11:01:45.547Z,6.4
2023-04-02T11:04:33.544Z,6.4
2023-04-02T11:07:35.509Z,6.4
2023-04-02T11:10:23.529Z,6.4
2023-04-02T11:13:11.407Z,6.4
2023-04-02T11:15:59.454Z,6.4
2023-04-02T11:18:47.457Z,6.4
2023-04-02T11:21:38.184Z,6.3
2023-04-02T11:24:42.584Z,6.3
2023-04-02T11:27:30.527Z,6.2
2023-04-02T11:30:18.413Z,6.2
2023-04-02T11:33:06.480Z,6.2
2023-04-02T11:35:54.412Z,6.3
2023-04-02T11:38:42.471Z,6.3
2023-04-02T11:41:30.409Z,6.3
2023-04-02T11:44:18.320Z,6.3
2023-04-02T11:47:06.178Z,6.4
2023-04-02T11:49:54.354Z,6.5
2023-04-02T11:52:42.674Z,6.5
2023-04-02T11:55:30.705Z,6.7
2023-04-02T11:58:18.516Z,6.9
2023-04-02T12:01:06.581Z,7
2023-04-02T12:03:54.436Z,6.9
2023-04-02T12:06:42.471Z,6.9
2023-04-02T12:09:30.371Z,6.9
2023-04-02T12:12:20.225Z,7
2023-04-02T12:15:07.999Z,7
2023-04-02T12:17:55.992Z,7
2023-04-02T12:20:43.977Z,6.9
2023-04-02T12:23:31.940Z,6.9
2023-04-02T12:26:20.464Z,7
2023-04-02T12:29:10.890Z,7
2023-04-02T12:31:58.803Z,7
2023-04-02T12:34:46.692Z,7
2023-04-02T12:37:34.537Z,7
2023-04-02T12:40:22.456Z,7
2023-04-02T12:43:10.381Z,6.9
2023-04-02T12:45:58.411Z,6.9
2023-04-02T12:48:46.187Z,6.9
2023-04-02T12:51:34.038Z,7
2023-04-02T12:54:21.878Z,7
2023-04-02T12:57:09.905Z,7
2023-04-02T12:59:57.799Z,7.1
2023-04-02T13:02:45.765Z,7.2
2023-04-02T13:05:33.683Z,7.2
2023-04-02T13:08:21.662Z,7.2
2023-04-02T13:11:09.522Z,7.2
2023-04-02T13:13:57.463Z,7.2
2023-04-02T13:16:45.573Z,7.2
2023-04-02T13:19:33.488Z,7.2
2023-04-02T13:22:21.293Z,7.2
2023-04-02T13:25:09.234Z,7.2
2023-04-02T13:27:57.036Z,7.1
2023-04-02T13:30:44.923Z,7.2
2023-04-02T13:33:32.937Z,7.2
2023-04-02T13:36:20.936Z,7.3
2023-04-02T13:39:08.716Z,7.4
2023-04-02T13:41:56.594Z,7.4
2023-04-02T13:44:44.380Z,7.4
2023-04-02T13:47:32.259Z,7.4
2023-04-02T13:50:20.333Z,7.4
2023-04-02T13:53:10.346Z,7.4
2023-04-02T13:55:58.480Z,7.4
2023-04-02T13:58:46.277Z,7.4
2023-04-02T14:01:34.194Z,7.5
2023-04-02T14:04:22.620Z,7.5
2023-04-02T14:07:10.700Z,7.5
2023-04-02T14:09:58.579Z,7.6
2023-04-02T14:12:46.303Z,7.8
2023-04-02T14:15:34.242Z,7.8
2023-04-02T14:18:22.613Z,7.8
2023-04-02T14:21:10.477Z,8
2023-04-02T14:23:58.303Z,8.6
2023-04-02T14:26:46.030Z,9.7
2023-04-02T14:29:33.823Z,10.9
2023-04-02T14:32:21.666Z,11.9
2023-04-02T14:35:09.565Z,12.5
2023-04-02T14:37:57.456Z,12.4
2023-04-02T14:40:45.288Z,12
2023-04-02T14:43:33.143Z,11.6
2023-04-02T14:46:21.086Z,11.2
2023-04-02T14:49:08.927Z,11
2023-04-02T14:51:56.654Z,10.8
2023-04-02T14:54:44.481Z,10.9
2023-04-02T14:57:32.345Z,10.8
2023-04-02T15:00:20.559Z,10.5
2023-04-02T15:03:08.722Z,10.4
2023-04-02T15:05:56.953Z,10.3
2023-04-02T15:08:48.239Z,10.1
2023-04-02T15:11:46.565Z,10
2023-04-02T15:14:34.342Z,10
2023-04-02T15:17:22.228Z,9.7
2023-04-02T15:20:10.199Z,9.6
2023-04-02T15:22:58.082Z,9.8
2023-04-02T15:25:45.817Z,10.4
2023-04-02T15:28:33.663Z,10.7
2023-04-02T15:31:21.535Z,10.6
2023-04-02T15:34:09.522Z,10.4
2023-04-02T15:36:57.249Z,10.3
2023-04-02T15:39:45.052Z,10.3
2023-04-02T15:42:32.819Z,10.6
2023-04-02T15:45:20.858Z,11.1
2023-04-02T15:48:08.778Z,11.7
2023-04-02T15:50:56.708Z,12.1
2023-04-02T15:53:44.514Z,12.5
2023-04-02T15:56:32.299Z,12.9
2023-04-02T15:59:20.082Z,12.9
2023-04-02T16:02:08.052Z,12.5
2023-04-02T16:04:55.953Z,12.5
2023-04-02T16:07:43.793Z,12.3
2023-04-02T16:10:40.679Z,11.9
2023-04-02T16:13:31.014Z,11.8
2023-04-02T16:16:18.845Z,12.2
2023-04-02T16:19:15.735Z,12.5
2023-04-02T16:22:04.930Z,12.7
2023-04-02T16:24:52.812Z,12.9
2023-04-02T16:27:40.543Z,12.8
2023-04-02T16:30:28.434Z,12.6
2023-04-02T16:33:16.265Z,12.5
2023-04-02T16:36:11.642Z,12.5
2023-04-02T16:38:59.530Z,12.3
2023-04-02T16:41:47.350Z,12.3
2023-04-02T16:44:35.203Z,12.1
2023-04-02T16:47:23.036Z,11.9
2023-04-02T16:50:10.886Z,11.4
2023-04-02T16:52:58.785Z,10.7
2023-04-02T16:55:46.577Z,10.1
2023-04-02T16:58:34.400Z,9.7
2023-04-02T17:01:22.203Z,9.4
2023-04-02T17:04:10.484Z,9
2023-04-02T17:06:58.261Z,8.6
2023-04-02T17:09:46.170Z,8.3
2023-04-02T17:12:34.082Z,8
2023-04-02T17:15:27.608Z,7.6
2023-04-02T17:18:16.663Z,7.5
2023-04-02T17:21:04.807Z,7.4
2023-04-02T17:23:56.146Z,7.2
2023-04-02T17:26:44.598Z,7.2
2023-04-02T17:29:32.454Z,7.2
2023-04-02T17:32:20.496Z,7.1
2023-04-02T17:35:08.175Z,7
2023-04-02T17:37:56.161Z,7
2023-04-02T17:40:44.004Z,7
2023-04-02T17:43:32.111Z,6.9
2023-04-02T17:46:20.357Z,6.8
2023-04-02T17:49:08.728Z,6.7
2023-04-02T17:51:56.514Z,6.6
2023-04-02T17:54:44.452Z,6.5
2023-04-02T17:57:32.341Z,6.3
2023-04-02T18:00:20.629Z,6.2
2023-04-02T18:03:08.727Z,6.1
2023-04-02T18:05:57.232Z,6
2023-04-02T18:08:45.028Z,5.9
2023-04-02T18:11:33.045Z,5.8
2023-04-02T18:14:20.926Z,5.7
2023-04-02T18:17:09.053Z,5.7
2023-04-02T18:19:59.515Z,5.6
2023-04-02T18:22:47.153Z,5.5
2023-04-02T18:25:35.081Z,5.5
2023-04-02T18:28:22.865Z,5.3
2023-04-02T18:31:10.874Z,5.3
2023-04-02T18:33:58.927Z,5.3
2023-04-02T18:36:46.783Z,5.2
2023-04-02T18:39:34.708Z,5.1
2023-04-02T18:42:22.594Z,5.1
2023-04-02T18:45:10.482Z,5
2023-04-02T18:47:58.398Z,5
2023-04-02T18:50:46.488Z,4.9
2023-04-02T18:53:34.645Z,4.9
2023-04-02T18:56:22.535Z,4.7
2023-04-02T18:59:10.416Z,4.7
2023-04-02T19:01:58.233Z,4.5
2023-04-02T19:04:46.038Z,4.5
2023-04-02T19:07:34.104Z,4.5
2023-04-02T19:10:21.990Z,4.4
2023-04-02T19:13:09.996Z,4.3
2023-04-02T19:15:57.871Z,4.2
2023-04-02T19:18:45.929Z,4.2
2023-04-02T19:21:33.755Z,4.1
2023-04-02T19:24:21.694Z,4
2023-04-02T19:27:09.590Z,3.9
2023-04-02T19:29:57.618Z,3.9
2023-04-02T19:32:45.587Z,3.8
2023-04-02T19:35:33.669Z,3.7
2023-04-02T19:38:21.873Z,3.6
2023-04-02T19:41:09.848Z,3.5
2023-04-02T19:43:57.750Z,3.5
2023-04-02T19:46:45.784Z,3.5
2023-04-02T19:49:33.740Z,3.4
2023-04-02T19:52:21.633Z,3.3
2023-04-02T19:55:09.428Z,3.3
2023-04-02T19:58:04.399Z,3.3
2023-04-02T20:01:07.501Z,3.3
2023-04-02T20:03:55.733Z,3.2
2023-04-02T20:06:43.731Z,3.1
2023-04-02T20:09:31.680Z,3.1
2023-04-02T20:12:19.884Z,3
2023-04-02T20:15:07.781Z,2.9
2023-04-02T20:17:55.750Z,2.9
2023-04-02T20:20:43.701Z,2.8
2023-04-02T20:23:31.332Z,2.7
2023-04-02T20:26:19.244Z,2.7
2023-04-02T20:29:06.891Z,2.5
2023-04-02T20:31:54.970Z,2.5
2023-04-02T20:34:43.207Z,2.5
2023-04-02T20:37:31.198Z,2.4
2023-04-02T20:40:18.961Z,2.3
2023-04-02T20:43:06.868Z,2.3
2023-04-02T20:45:54.784Z,2.2
2023-04-02T20:48:43.229Z,2.1
2023-04-02T20:51:30.986Z,2
2023-04-02T20:54:18.863Z,2
2023-04-02T20:57:06.598Z,1.9
2023-04-02T20:59:54.586Z,1.8
2023-04-02T21:02:42.361Z,1.7
2023-04-02T21:05:30.347Z,1.6
2023-04-02T21:08:18.301Z,1.6
2023-04-02T21:11:06.499Z,1.5
2023-04-02T21:13:54.335Z,1.5
2023-04-02T21:16:42.422Z,1.4
2023-04-02T21:19:30.157Z,1.4
2023-04-02T21:22:18.109Z,1.3
2023-04-02T21:25:05.902Z,1.2
2023-04-02T21:27:53.804Z,1.2
2023-04-02T21:30:41.693Z,1.3
2023-04-02T21:33:29.533Z,1.2
2023-04-02T21:36:17.480Z,1.2
2023-04-02T21:39:05.471Z,1.1
2023-04-02T21:41:53.394Z,1.1
2023-04-02T21:44:41.319Z,1.1
2023-04-02T21:47:29.389Z,1.1
2023-04-02T21:50:17.345Z,1.1
2023-04-02T21:53:05.032Z,1
2023-04-02T21:55:52.935Z,1
2023-04-02T21:58:40.750Z,1
2023-04-02T22:01:28.636Z,1
2023-04-02T22:04:16.745Z,1
2023-04-02T22:07:04.760Z,1
2023-04-02T22:09:52.705Z,1
2023-04-02T22:12:40.651Z,1
2023-04-02T22:15:28.474Z,1
2023-04-02T22:18:16.402Z,1
2023-04-02T22:21:04.394Z,1
2023-04-02T22:23:52.032Z,1
2023-04-02T22:26:39.901Z,1
2023-04-02T22:29:27.884Z,1.1
2023-04-02T22:32:15.741Z,1.1
2023-04-02T22:35:03.565Z,1.1
2023-04-02T22:37:51.292Z,1
2023-04-02T22:40:39.073Z,1
2023-04-02T22:43:26.856Z,0.9
2023-04-02T22:46:14.795Z,0.8
2023-04-02T22:49:02.706Z,0.8
2023-04-02T22:51:50.570Z,0.7
2023-04-02T22:54:38.260Z,0.6
2023-04-02T22:57:26.344Z,0.6
2023-04-02T23:00:14.113Z,0.5
2023-04-02T23:03:01.918Z,0.5
2023-04-02T23:05:49.872Z,0.4
2023-04-02T23:08:37.774Z,0.4
2023-04-02T23:11:25.516Z,0.3
2023-04-02T23:14:13.297Z,0.2
2023-04-02T23:17:01.390Z,0.2
2023-04-02T23:19:49.341Z,0.1
2023-04-02T23:22:37.026Z,0
2023-04-02T23:25:24.938Z,0
2023-04-02T23:28:12.666Z,0
2023-04-02T23:31:00.520Z,-0.1
2023-04-02T23:33:48.293Z,-0.1
2023-04-02T23:36:36.172Z,-0.1
2023-04-02T23:39:24.061Z,-0.1
2023-04-02T23:42:11.912Z,-0.1
2023-04-02T23:44:59.621Z,-0.1
2023-04-02T23:47:47.459Z,-0.2
2023-04-02T23:50:35.428Z,-0.2
2023-04-02T23:53:23.786Z,-0.2
2023-04-02T23:56:11.699Z,-0.3
2023-04-02T23:58:59.559Z,-0.3
